RJB weather

Rajbiraj Airport
Rajbiraj, Sagarmatha, Nepal

Public forecast

Using degrees Celsius for public forecast. Weather courtesy of forecast.io.

METAR (pilot weather report)

Closest report is Bagdogra Airport, 86.2 nm (159.7 km) E. Retrieved 2019/07/17 13:30 UTC (41 minutes ago):

VEBD 171330Z VRB01KT 6000 FEW025 SCT200 29/25 Q1000 NOSIG

TAF (pilot weather forecast)

Closest forecast is Bagdogra Airport, 86.2 nm (159.7 km) E. Retrieved 2019/07/17 12:30 UTC (2 hours ago):

TAF VEBD 170930Z 1712/1724 05010KT 6000 SCT015 SCT025 SCT090 TEMPO 1718/1724 3000 TSRA SCT010 SCT020 FEW030CB BKN080